Time;durP1;ratioP1;P1;durP2;ratioP2;P2;SDS_P1;SDS_P2;PMS_P1;PMS_P2;Temp;Humidity;BMP_temperature;BMP_pressure;BME280_temperature;BME280_humidity;BME280_pressure;Samples;Min_cycle;Max_cycle;Signal;HPM_P1;HPM_P2
2022/07/15 00:01:28;;;;;;;4.55;1.65;;;;;;;18.05;60.48;101210.94;5074699;28;20086;-72
2022/07/15 00:03:54;;;;;;;5.47;1.75;;;;;;;17.98;60.85;101214.25;5057979;28;20082;-72
2022/07/15 00:06:19;;;;;;;3.78;1.65;;;;;;;17.97;60.50;101209.78;5075590;28;20029;-72
2022/07/15 00:08:45;;;;;;;3.50;1.60;;;;;;;17.92;60.63;101209.13;5057438;28;20039;-72
2022/07/15 00:11:10;;;;;;;7.13;1.70;;;;;;;17.86;60.64;101202.84;5057893;28;20036;-72
2022/07/15 00:13:36;;;;;;;4.85;1.60;;;;;;;17.80;60.79;101207.78;5075386;28;20024;-72
2022/07/15 00:16:02;;;;;;;4.07;1.70;;;;;;;17.80;60.94;101218.16;5074310;28;20048;-72
2022/07/15 00:18:28;;;;;;;5.35;1.80;;;;;;;17.74;60.91;101211.84;5071869;28;20028;-72
2022/07/15 00:20:53;;;;;;;4.93;1.83;;;;;;;17.72;60.90;101208.53;5074230;28;20497;-72
2022/07/15 00:23:19;;;;;;;5.13;1.65;;;;;;;17.70;60.81;101210.00;5107761;28;20027;-72
2022/07/15 00:25:44;;;;;;;4.50;1.98;;;;;;;17.67;61.11;101210.66;5078196;28;20043;-72
2022/07/15 00:28:09;;;;;;;4.50;1.75;;;;;;;17.65;61.21;101208.16;5079728;28;20066;-72
2022/07/15 00:30:40;;;;;;;3.50;1.40;;;;;;;17.63;61.14;101213.28;5077710;28;20108;-72
2022/07/15 00:33:06;;;;;;;5.05;1.67;;;;;;;17.60;61.20;101203.53;5061205;28;20384;-72
2022/07/15 00:35:32;;;;;;;4.57;1.48;;;;;;;17.55;61.09;101198.06;5079168;28;20032;-72
2022/07/15 00:37:58;;;;;;;3.45;1.80;;;;;;;17.56;61.35;101204.50;5061835;28;20025;-72
2022/07/15 00:40:23;;;;;;;3.83;1.67;;;;;;;17.47;61.55;101196.06;5075673;28;20484;-72
2022/07/15 00:42:49;;;;;;;3.90;1.77;;;;;;;17.46;61.58;101200.00;5072101;28;20358;-72
2022/07/15 00:45:19;;;;;;;2.58;1.65;;;;;;;17.39;61.47;101194.88;5078858;28;20111;-72
2022/07/15 00:47:47;;;;;;;3.53;1.70;;;;;;;17.37;61.66;101199.16;5078906;28;20039;-72
2022/07/15 00:50:13;;;;;;;3.53;1.42;;;;;;;17.37;61.76;101207.56;5077464;28;20052;-72
2022/07/15 00:52:41;;;;;;;3.10;1.85;;;;;;;17.28;61.88;101209.50;5078568;28;20080;-72
2022/07/15 00:55:09;;;;;;;3.92;1.83;;;;;;;17.25;61.77;101210.97;5079102;28;20033;-72
2022/07/15 00:57:35;;;;;;;3.72;1.70;;;;;;;17.20;61.95;101209.13;5060762;28;20464;-72
2022/07/15 01:00:02;;;;;;;3.50;1.80;;;;;;;17.16;62.02;101213.75;5057897;28;20032;-72
2022/07/15 01:02:27;;;;;;;3.28;1.65;;;;;;;17.11;61.83;101215.84;5053505;28;20097;-72
2022/07/15 01:04:53;;;;;;;2.90;1.58;;;;;;;17.10;62.16;101223.44;5077491;28;20033;-72
2022/07/15 01:07:18;;;;;;;2.55;1.55;;;;;;;17.05;62.35;101220.78;5078391;28;20528;-72
2022/07/15 01:09:44;;;;;;;3.17;1.58;;;;;;;17.02;62.21;101218.63;5077137;28;20025;-72
2022/07/15 01:12:09;;;;;;;2.40;1.70;;;;;;;17.00;62.22;101215.28;5077701;28;20036;-72
2022/07/15 01:14:36;;;;;;;5.80;1.58;;;;;;;16.94;62.72;101213.78;5078185;28;20031;-72
2022/07/15 01:17:01;;;;;;;3.58;1.50;;;;;;;16.94;62.35;101205.34;5077205;28;20584;-71
2022/07/15 01:19:27;;;;;;;4.30;1.70;;;;;;;16.86;62.63;101198.53;5075017;28;20028;-71
2022/07/15 01:21:52;;;;;;;5.18;1.60;;;;;;;16.78;62.97;101179.66;5068797;28;20054;-71
2022/07/15 01:24:17;;;;;;;6.25;1.77;;;;;;;16.74;62.88;101167.38;5060709;28;20039;-72
2022/07/15 01:26:43;;;;;;;4.57;1.60;;;;;;;16.72;63.87;101176.13;5078052;28;20568;-72
2022/07/15 01:29:08;;;;;;;3.55;1.60;;;;;;;16.67;63.41;101172.63;5057182;28;20029;-72
2022/07/15 01:31:34;;;;;;;4.78;2.00;;;;;;;16.60;64.17;101177.84;5077034;28;20028;-72
2022/07/15 01:33:59;;;;;;;6.20;1.90;;;;;;;16.61;64.01;101174.72;5078151;28;20025;-72
2022/07/15 01:36:25;;;;;;;3.28;1.60;;;;;;;16.59;63.92;101171.41;5077683;28;20028;-72
2022/07/15 01:38:50;;;;;;;3.05;1.70;;;;;;;16.54;63.95;101163.94;5077910;28;20024;-71
2022/07/15 01:41:16;;;;;;;6.10;1.90;;;;;;;16.51;63.87;101155.34;5110833;28;20054;-72
2022/07/15 01:43:41;;;;;;;6.43;2.00;;;;;;;16.48;63.42;101151.22;5077500;28;20037;-72
2022/07/15 01:46:07;;;;;;;3.67;2.00;;;;;;;16.47;63.48;101149.56;5078100;28;20538;-71
2022/07/15 01:51:17;;;;;;;4.22;2.00;;;;;;;16.44;63.86;101141.78;5062597;28;20111;-71
2022/07/15 01:53:43;;;;;;;3.85;1.85;;;;;;;16.44;63.97;101130.56;5077444;28;20067;-71
2022/07/15 01:56:08;;;;;;;4.18;2.00;;;;;;;16.37;63.92;101132.16;5077726;28;20392;-72
2022/07/15 01:58:34;;;;;;;7.50;2.03;;;;;;;16.35;64.07;101135.28;5073785;28;20020;-71
2022/07/15 02:00:59;;;;;;;6.55;2.10;;;;;;;16.29;64.33;101134.56;5089317;28;20083;-71
2022/07/15 02:03:25;;;;;;;4.63;2.30;;;;;;;16.30;64.63;101127.00;5077388;28;20024;-72
2022/07/15 02:05:50;;;;;;;3.38;1.80;;;;;;;16.26;64.34;101132.41;5076591;28;20039;-72
2022/07/15 02:08:15;;;;;;;5.53;2.17;;;;;;;16.26;64.84;101142.78;5059373;28;20021;-71
2022/07/15 02:10:41;;;;;;;3.35;2.13;;;;;;;16.22;65.54;101134.19;5077311;28;20036;-72
2022/07/15 02:13:10;;;;;;;5.45;1.73;;;;;;;16.21;65.11;101135.31;5077531;28;20362;-72
2022/07/15 02:15:36;;;;;;;4.40;2.20;;;;;;;16.16;65.05;101141.06;5076941;28;20024;-71
2022/07/15 02:18:02;;;;;;;5.75;2.47;;;;;;;16.15;65.13;101138.56;5077250;28;20060;-71
2022/07/15 02:20:28;;;;;;;2.78;1.90;;;;;;;16.11;65.13;101135.59;5071759;28;20390;-72
2022/07/15 02:22:57;;;;;;;5.13;2.10;;;;;;;16.11;65.17;101135.59;5059176;28;20082;-72
2022/07/15 02:25:26;;;;;;;3.45;1.80;;;;;;;16.09;65.04;101144.28;5059941;28;20524;-72
2022/07/15 02:28:02;;;;;;;4.32;2.00;;;;;;;16.08;65.17;101139.03;5055293;28;20055;-72
2022/07/15 02:30:33;;;;;;;3.50;1.90;;;;;;;16.06;65.10;101133.72;5074173;28;20025;-72
2022/07/15 02:32:59;;;;;;;3.75;1.85;;;;;;;16.03;65.67;101137.16;5066951;28;20515;-72
2022/07/15 02:35:24;;;;;;;3.05;2.10;;;;;;;16.02;65.09;101140.28;5076958;28;20025;-72
2022/07/15 02:37:50;;;;;;;3.70;2.00;;;;;;;15.94;65.21;101139.06;5076574;28;20024;-72
2022/07/15 02:40:15;;;;;;;6.13;2.25;;;;;;;15.93;65.59;101136.56;5058901;28;20039;-72
2022/07/15 02:42:47;;;;;;;4.80;2.50;;;;;;;15.88;65.87;101145.06;5059020;28;20032;-72
2022/07/15 02:45:12;;;;;;;6.45;2.55;;;;;;;15.88;65.97;101128.28;5075479;28;20028;-72
2022/07/15 02:47:38;;;;;;;4.32;1.85;;;;;;;15.86;66.32;101143.44;5074494;28;20037;-72
2022/07/15 02:50:05;;;;;;;8.55;2.78;;;;;;;15.84;66.16;101145.72;5076542;28;20028;-72
2022/07/15 02:52:30;;;;;;;3.78;2.17;;;;;;;15.83;66.41;101140.44;5059118;28;20035;-72
2022/07/15 02:54:56;;;;;;;3.53;2.10;;;;;;;15.82;66.14;101144.34;5076564;28;20024;-72
2022/07/15 02:57:21;;;;;;;4.93;2.15;;;;;;;15.79;65.87;101134.59;5040311;28;20083;-72
2022/07/15 02:59:47;;;;;;;3.95;2.17;;;;;;;15.79;66.09;101137.41;5072668;28;20032;-72
2022/07/15 03:02:12;;;;;;;4.50;2.13;;;;;;;15.79;66.36;101134.59;5108873;28;20040;-72
2022/07/15 03:04:38;;;;;;;5.38;2.47;;;;;;;15.74;65.93;101133.91;5076483;28;20041;-72
2022/07/15 03:07:03;;;;;;;5.63;2.50;;;;;;;15.75;66.13;101141.16;5076336;28;20131;-72
2022/07/15 03:09:29;;;;;;;5.03;2.13;;;;;;;15.74;66.55;101156.28;5076064;28;20032;-72
2022/07/15 03:11:54;;;;;;;3.88;2.33;;;;;;;15.70;66.35;101156.09;5076124;28;20043;-72
2022/07/15 03:14:19;;;;;;;4.15;2.20;;;;;;;15.65;66.55;101153.38;5076062;28;20036;-71
2022/07/15 03:16:46;;;;;;;6.00;2.30;;;;;;;15.63;66.28;101156.50;5076525;28;20036;-72
2022/07/15 03:19:11;;;;;;;4.07;2.30;;;;;;;15.61;66.41;101157.97;5073934;28;20040;-71
2022/07/15 03:21:37;;;;;;;3.90;2.08;;;;;;;15.61;66.26;101160.75;5076046;28;20036;-72
2022/07/15 03:24:03;;;;;;;4.10;2.15;;;;;;;15.58;66.55;101155.78;5074940;28;20032;-72
2022/07/15 03:26:29;;;;;;;5.10;2.20;;;;;;;15.57;66.24;101162.50;5076298;28;20033;-72
2022/07/15 03:28:54;;;;;;;3.15;2.13;;;;;;;15.56;66.57;101155.25;5075996;28;20029;-71
2022/07/15 03:31:20;;;;;;;4.55;2.10;;;;;;;15.53;66.54;101155.88;5076276;28;20028;-72
2022/07/15 03:33:45;;;;;;;3.47;2.10;;;;;;;15.50;66.42;101160.13;5057949;28;20032;-72
2022/07/15 03:36:11;;;;;;;4.68;2.38;;;;;;;15.50;66.73;101164.91;5074693;28;20054;-72
2022/07/15 03:38:36;;;;;;;4.20;2.38;;;;;;;15.43;66.57;101156.91;5075848;28;20037;-72
2022/07/15 03:41:01;;;;;;;4.47;2.10;;;;;;;15.42;66.68;101161.69;5075069;28;20040;-72
2022/07/15 03:43:29;;;;;;;4.22;2.08;;;;;;;15.41;66.76;101150.81;5074114;28;20469;-72
2022/07/15 03:45:55;;;;;;;3.95;2.38;;;;;;;15.37;66.94;101156.19;5108543;28;20035;-72
2022/07/15 03:48:21;;;;;;;4.25;2.42;;;;;;;15.34;67.26;101164.38;5057522;28;20413;-72
2022/07/15 03:50:47;;;;;;;4.70;2.40;;;;;;;15.31;67.24;101163.03;5091566;28;20025;-72
2022/07/15 03:53:13;;;;;;;3.75;2.55;;;;;;;15.30;66.55;101153.00;5074203;28;20039;-72
2022/07/15 03:55:39;;;;;;;3.50;2.10;;;;;;;15.25;67.25;101155.06;5108322;28;20039;-72
2022/07/15 03:58:05;;;;;;;3.58;2.47;;;;;;;15.26;66.90;101151.13;5075851;28;20037;-72
2022/07/15 04:00:30;;;;;;;3.38;2.30;;;;;;;15.25;66.91;101155.06;5047554;28;20476;-72
2022/07/15 04:02:56;;;;;;;7.13;2.92;;;;;;;15.18;67.21;101161.91;5082506;28;20098;-71
2022/07/15 04:05:22;;;;;;;5.38;2.58;;;;;;;15.18;67.21;101163.84;5080869;28;20037;-72
2022/07/15 04:07:47;;;;;;;5.60;2.67;;;;;;;15.17;67.37;101160.22;5082022;28;20481;-72
2022/07/15 04:10:14;;;;;;;7.53;2.55;;;;;;;15.15;67.02;101170.06;5082319;28;20075;-72
2022/07/15 04:12:39;;;;;;;8.30;2.95;;;;;;;15.12;67.44;101167.88;5047631;28;20032;-72
2022/07/15 04:15:05;;;;;;;4.38;2.60;;;;;;;15.11;67.33;101166.22;5064514;28;20036;-72
2022/07/15 04:17:30;;;;;;;4.30;2.33;;;;;;;15.12;67.43;101176.28;5080808;28;20079;-72
2022/07/15 04:19:56;;;;;;;3.53;2.40;;;;;;;15.11;67.66;101166.22;5091975;28;20025;-72
2022/07/15 04:22:21;;;;;;;5.55;2.50;;;;;;;15.08;67.38;101178.03;5080951;28;20496;-72
2022/07/15 04:24:47;;;;;;;4.95;2.40;;;;;;;15.04;67.50;101172.22;5074625;28;20028;-72
2022/07/15 04:27:12;;;;;;;5.03;2.20;;;;;;;15.02;67.47;101176.47;5080259;28;20020;-72
2022/07/15 04:29:38;;;;;;;4.03;2.38;;;;;;;15.03;68.26;101178.13;5080604;28;20397;-72
2022/07/15 04:32:04;;;;;;;5.03;2.22;;;;;;;15.01;67.90;101186.00;5079178;28;20031;-72
2022/07/15 04:34:29;;;;;;;4.97;1.80;;;;;;;15.02;67.74;101191.28;5082133;28;20500;-72
2022/07/15 04:36:55;;;;;;;6.15;2.40;;;;;;;15.01;68.35;101195.22;5082083;28;20032;-72
2022/07/15 04:39:21;;;;;;;5.13;2.38;;;;;;;15.01;68.70;101200.81;5081970;28;20028;-72
2022/07/15 04:41:46;;;;;;;5.35;2.28;;;;;;;15.05;68.46;101196.28;5081921;28;20029;-72
2022/07/15 04:44:11;;;;;;;4.05;2.40;;;;;;;15.10;68.58;101200.94;5081557;28;20055;-72
2022/07/15 04:46:37;;;;;;;4.72;2.40;;;;;;;15.11;69.03;101197.84;5081816;28;20043;-72
2022/07/15 04:51:47;;;;;;;5.93;2.30;;;;;;;15.22;69.71;101208.84;5077319;28;20025;-72
2022/07/15 04:54:12;;;;;;;6.65;2.45;;;;;;;15.29;70.38;101206.44;5081714;28;20028;-72
2022/07/15 04:56:38;;;;;;;5.40;2.22;;;;;;;15.33;70.92;101210.31;5081490;28;20052;-72
2022/07/15 04:59:03;;;;;;;4.05;2.30;;;;;;;15.41;71.70;101209.59;5057468;28;20044;-72
2022/07/15 05:01:29;;;;;;;4.35;2.30;;;;;;;15.51;71.20;101205.75;5064315;28;20032;-71
2022/07/15 05:03:54;;;;;;;4.30;2.30;;;;;;;15.63;71.55;101198.50;5081554;28;20059;-71
2022/07/15 05:06:19;;;;;;;4.35;2.40;;;;;;;15.74;72.79;101195.50;5080770;28;20028;-72
2022/07/15 05:08:45;;;;;;;6.18;2.88;;;;;;;15.85;75.48;101200.59;5064063;28;20025;-72
2022/07/15 05:11:10;;;;;;;4.90;2.55;;;;;;;15.98;75.33;101204.50;5078857;28;20465;-72
2022/07/15 05:13:37;;;;;;;4.22;2.47;;;;;;;16.12;72.80;101201.69;5078466;28;20028;-72
2022/07/15 05:16:03;;;;;;;4.57;2.20;;;;;;;16.28;72.06;101193.75;5078650;28;20047;-72
2022/07/15 05:18:28;;;;;;;4.93;2.25;;;;;;;16.44;70.93;101194.22;5076946;28;20033;-72
2022/07/15 05:20:54;;;;;;;4.63;2.38;;;;;;;16.63;73.26;101194.88;5075262;28;20098;-72
2022/07/15 05:23:19;;;;;;;5.38;2.05;;;;;;;16.80;70.41;101199.81;5058986;28;20036;-72
2022/07/15 05:25:45;;;;;;;2.88;2.17;;;;;;;17.01;70.33;101200.09;5077330;28;20440;-72
2022/07/15 05:28:11;;;;;;;3.95;2.33;;;;;;;17.22;68.75;101199.53;5078162;28;20033;-72
2022/07/15 05:30:37;;;;;;;4.35;2.20;;;;;;;17.41;67.66;101194.53;5076788;28;20032;-72
2022/07/15 05:33:03;;;;;;;6.25;2.40;;;;;;;17.62;68.30;101194.78;5091645;28;20108;-72
2022/07/15 05:35:28;;;;;;;3.63;2.40;;;;;;;17.82;69.21;101193.38;5076244;28;20056;-72
2022/07/15 05:37:54;;;;;;;4.95;2.40;;;;;;;18.03;68.01;101197.25;5107558;28;20031;-72
2022/07/15 05:40:19;;;;;;;6.13;2.78;;;;;;;18.24;67.41;101191.78;5078030;28;20459;-72
2022/07/15 05:42:45;;;;;;;4.05;2.30;;;;;;;18.44;64.55;101179.09;5078327;28;20032;-72
2022/07/15 05:45:10;;;;;;;8.50;2.60;;;;;;;18.66;65.48;101180.88;5077591;28;20043;-72
2022/07/15 05:47:36;;;;;;;3.97;2.25;;;;;;;18.88;63.28;101182.69;5076244;28;20023;-72
2022/07/15 05:50:02;;;;;;;3.00;1.90;;;;;;;19.07;62.84;101187.13;5076531;28;20032;-72
2022/07/15 05:52:27;;;;;;;4.88;2.72;;;;;;;19.21;63.79;101187.75;5056600;28;20025;-72
2022/07/15 05:54:53;;;;;;;6.47;3.20;;;;;;;19.36;64.07;101195.66;5076758;28;20031;-72
2022/07/15 05:57:18;;;;;;;6.72;2.65;;;;;;;19.56;63.75;101185.63;5073573;28;20441;-72
2022/07/15 05:59:44;;;;;;;7.20;2.90;;;;;;;19.70;62.57;101187.41;5075332;28;20085;-72
2022/07/15 06:02:09;;;;;;;7.78;2.97;;;;;;;19.88;62.51;101185.31;5077557;28;20033;-72
2022/07/15 06:04:35;;;;;;;6.72;3.03;;;;;;;20.00;62.29;101177.78;5076530;28;20032;-72
2022/07/15 06:07:00;;;;;;;6.05;2.85;;;;;;;20.22;61.38;101179.44;5077597;28;20024;-72
2022/07/15 06:09:27;;;;;;;3.28;2.15;;;;;;;20.41;60.27;101178.13;5077275;28;20036;-72
2022/07/15 06:11:52;;;;;;;4.05;1.95;;;;;;;20.53;59.82;101164.94;5109822;27;20119;-72
2022/07/15 06:14:17;;;;;;;4.70;2.42;;;;;;;20.69;58.91;101170.75;5076848;28;20024;-72
2022/07/15 06:16:43;;;;;;;5.78;2.45;;;;;;;20.88;58.55;101170.25;5076576;28;20041;-72
2022/07/15 06:19:10;;;;;;;6.80;2.55;;;;;;;20.94;58.25;101168.84;5070580;28;20032;-64
2022/07/15 06:21:36;;;;;;;3.63;2.15;;;;;;;21.07;57.43;101168.88;5059202;28;20067;-65
2022/07/15 06:24:01;;;;;;;8.32;2.45;;;;;;;21.21;56.39;101177.84;5043099;28;20028;-66
2022/07/15 06:26:27;;;;;;;6.63;2.65;;;;;;;21.34;56.59;101170.22;5058501;28;20031;-66
2022/07/15 06:28:52;;;;;;;6.38;2.47;;;;;;;21.51;55.46;101174.88;5057446;28;20033;-66
2022/07/15 06:31:18;;;;;;;4.55;1.92;;;;;;;21.69;55.84;101175.47;5057574;28;20029;-67
2022/07/15 06:33:43;;;;;;;8.55;1.98;;;;;;;21.82;55.16;101182.75;5059886;28;20493;-67
2022/07/15 06:36:09;;;;;;;5.43;2.20;;;;;;;21.94;54.55;101173.44;5059946;28;20024;-67
2022/07/15 06:38:34;;;;;;;8.40;2.45;;;;;;;22.06;54.26;101176.22;5060067;28;20036;-67
2022/07/15 06:40:59;;;;;;;5.43;2.10;;;;;;;22.20;53.51;101184.38;5076128;28;20024;-67
2022/07/15 06:43:25;;;;;;;6.53;2.47;;;;;;;22.32;53.59;101192.03;5073350;28;20032;-66
2022/07/15 06:45:50;;;;;;;4.40;2.47;;;;;;;22.46;53.06;101181.94;5059161;28;20040;-67
2022/07/15 06:48:16;;;;;;;3.20;1.80;;;;;;;22.67;52.24;101178.09;5058804;28;20032;-67
2022/07/15 06:50:42;;;;;;;7.70;2.60;;;;;;;22.81;52.68;101189.00;5075643;28;20462;-67
2022/07/15 06:53:07;;;;;;;5.28;2.30;;;;;;;22.92;51.30;101178.78;5075404;28;20115;-66
2022/07/15 06:55:33;;;;;;;7.38;2.38;;;;;;;23.03;51.48;101174.28;5058826;28;20094;-66
2022/07/15 06:57:58;;;;;;;5.30;2.15;;;;;;;23.12;51.20;101171.28;5073886;28;20051;-67
2022/07/15 07:00:24;;;;;;;4.55;2.40;;;;;;;23.25;50.80;101172.03;5075196;28;20040;-67
2022/07/15 07:02:50;;;;;;;9.07;2.58;;;;;;;23.33;50.17;101171.03;5058696;28;20125;-67
2022/07/15 07:05:16;;;;;;;5.22;2.05;;;;;;;23.44;50.25;101169.28;5075300;28;20446;-67
2022/07/15 07:07:41;;;;;;;6.18;2.20;;;;;;;23.52;50.04;101168.28;5041824;28;20422;-67
2022/07/15 07:10:07;;;;;;;5.20;2.08;;;;;;;23.63;50.02;101172.22;5022126;28;20025;-67
2022/07/15 07:12:32;;;;;;;4.85;1.90;;;;;;;23.80;49.31;101167.38;5053036;28;20052;-67
2022/07/15 07:15:00;;;;;;;5.25;2.20;;;;;;;23.85;49.26;101162.25;5066110;28;20025;-67
2022/07/15 07:17:26;;;;;;;6.47;1.90;;;;;;;23.99;49.00;101164.59;5058683;28;20120;-67
2022/07/15 07:19:52;;;;;;;5.22;2.10;;;;;;;24.05;49.01;101156.63;5065469;28;20065;-70
2022/07/15 07:22:17;;;;;;;6.00;2.00;;;;;;;24.17;49.33;101150.78;5070022;28;20052;-69
2022/07/15 07:24:44;;;;;;;6.35;2.00;;;;;;;24.31;48.46;101148.25;5057586;28;20028;-67
2022/07/15 07:27:10;;;;;;;4.45;2.08;;;;;;;24.42;48.85;101142.00;5058429;28;20039;-67
2022/07/15 07:29:35;;;;;;;4.82;1.90;;;;;;;24.46;47.96;101145.75;5058112;28;20040;-67
2022/07/15 07:32:02;;;;;;;6.03;1.83;;;;;;;24.63;47.96;101142.47;5058275;28;20029;-67
2022/07/15 07:34:27;;;;;;;7.60;2.05;;;;;;;24.76;47.70;101140.28;5037964;28;20029;-67
2022/07/15 07:36:53;;;;;;;4.85;1.98;;;;;;;24.93;46.96;101134.16;5072595;28;20025;-67
2022/07/15 07:39:18;;;;;;;6.25;1.60;;;;;;;25.07;46.30;101141.25;5108288;28;20020;-67
2022/07/15 07:41:44;;;;;;;4.30;1.80;;;;;;;25.13;45.47;101134.91;5058312;28;20503;-67
2022/07/15 07:44:09;;;;;;;4.13;1.40;;;;;;;25.30;45.68;101139.28;5057644;28;20079;-67
2022/07/15 07:46:35;;;;;;;3.25;1.40;;;;;;;25.47;45.87;101137.94;5057936;28;20029;-67
2022/07/15 07:49:00;;;;;;;3.58;1.50;;;;;;;25.67;45.73;101132.16;5054544;28;20107;-67
2022/07/15 07:51:26;;;;;;;5.80;1.38;;;;;;;25.78;44.56;101133.16;5057568;28;20036;-67
2022/07/15 07:53:52;;;;;;;4.32;1.50;;;;;;;25.93;44.91;101137.88;5059481;28;20083;-67
2022/07/15 07:56:17;;;;;;;4.57;1.40;;;;;;;26.04;43.04;101140.88;5074745;28;20051;-66
2022/07/15 07:58:43;;;;;;;2.30;1.13;;;;;;;26.23;42.11;101143.59;5057614;28;20021;-67
2022/07/15 08:01:08;;;;;;;5.72;1.33;;;;;;;26.38;41.26;101136.03;5076137;28;20082;-67
2022/07/15 08:03:34;;;;;;;5.25;1.38;;;;;;;26.52;41.40;101138.28;5057438;28;20427;-67
2022/07/15 08:05:59;;;;;;;5.20;1.60;;;;;;;26.59;40.14;101135.53;5057897;28;20032;-67
2022/07/15 08:08:25;;;;;;;5.18;1.40;;;;;;;26.70;39.64;101129.97;5037901;28;20033;-67
2022/07/15 08:10:52;;;;;;;4.15;1.20;;;;;;;26.88;39.40;101127.28;5036604;28;20029;-67
2022/07/15 08:13:19;;;;;;;7.00;1.35;;;;;;;26.96;38.10;101124.13;5038607;28;20029;-67
2022/07/15 08:15:44;;;;;;;4.22;1.10;;;;;;;27.00;37.30;101127.03;5058195;28;20040;-67
2022/07/15 08:18:10;;;;;;;3.75;1.13;;;;;;;27.00;36.46;101111.97;5041300;28;20029;-67
2022/07/15 08:20:36;;;;;;;3.03;1.10;;;;;;;27.16;37.02;101121.94;5069182;28;20103;-67
2022/07/15 08:23:02;;;;;;;4.50;1.35;;;;;;;27.27;35.51;101126.88;5024249;28;20025;-67
2022/07/15 08:25:28;;;;;;;3.83;1.10;;;;;;;27.20;36.74;101119.09;5070827;28;20089;-67
2022/07/15 08:27:53;;;;;;;3.95;1.23;;;;;;;27.37;36.67;101126.16;5051374;28;20086;-67
2022/07/15 08:30:19;;;;;;;4.10;1.20;;;;;;;27.43;36.16;101113.19;5057479;28;20104;-67
2022/07/15 08:32:45;;;;;;;2.90;1.10;;;;;;;27.56;36.47;101113.69;5090921;28;20033;-67
2022/07/15 08:35:10;;;;;;;3.20;1.20;;;;;;;27.54;34.78;101107.56;5073688;28;20024;-67
2022/07/15 08:37:36;;;;;;;3.55;1.20;;;;;;;27.68;35.62;101119.06;5024152;28;20025;-67
2022/07/15 08:40:03;;;;;;;3.80;1.20;;;;;;;27.75;34.90;101124.84;5057821;28;20731;-67
2022/07/15 08:42:28;;;;;;;2.78;1.20;;;;;;;27.70;34.25;101113.78;5074002;28;20031;-67
2022/07/15 08:44:54;;;;;;;3.78;1.38;;;;;;;27.84;35.10;101108.19;5073506;28;20396;-67
2022/07/15 08:47:19;;;;;;;3.08;1.05;;;;;;;28.01;35.72;101108.72;5076977;28;20024;-67
2022/07/15 08:49:45;;;;;;;3.50;1.00;;;;;;;28.10;35.84;101105.50;5027711;28;20040;-67
2022/07/15 08:52:11;;;;;;;2.55;1.50;;;;;;;28.02;34.15;101111.16;5061030;28;20024;-67
2022/07/15 08:54:37;;;;;;;4.10;1.50;;;;;;;28.18;33.30;101102.25;5060948;28;20036;-67
2022/07/15 08:57:02;;;;;;;3.92;1.40;;;;;;;28.25;32.89;101110.88;5060962;28;20059;-67
2022/07/15 08:59:28;;;;;;;6.53;1.60;;;;;;;28.24;32.77;101112.06;5060774;28;20112;-67
2022/07/15 09:01:53;;;;;;;3.30;1.10;;;;;;;28.17;31.89;101105.53;5077328;28;20078;-67
2022/07/15 09:04:19;;;;;;;2.38;1.17;;;;;;;28.13;32.35;101108.34;5060660;28;20024;-67
2022/07/15 09:06:46;;;;;;;3.00;1.23;;;;;;;28.19;31.68;101111.66;5044257;28;20024;-68
2022/07/15 09:09:34;;;;;;;1.85;1.00;;;;;;;28.23;31.59;101104.75;5060811;28;20028;-66
2022/07/15 09:12:03;;;;;;;4.20;1.33;;;;;;;28.34;31.28;101101.13;5061040;28;20505;-67
2022/07/15 09:14:29;;;;;;;2.53;1.20;;;;;;;28.42;31.73;101100.78;5057086;28;20057;-67
2022/07/15 09:17:04;;;;;;;4.18;1.55;;;;;;;28.58;31.42;101111.00;5052678;28;20115;-66
2022/07/15 09:19:52;;;;;;;4.35;1.08;;;;;;;28.57;31.40;101104.47;5074298;28;20033;-67
2022/07/15 09:22:18;;;;;;;3.42;1.50;;;;;;;28.76;31.43;101102.50;5071745;28;20036;-67
2022/07/15 09:24:44;;;;;;;2.80;1.10;;;;;;;28.84;31.52;101109.88;5093896;28;20021;-67
2022/07/15 09:27:29;;;;;;;2.92;1.17;;;;;;;28.95;31.61;101116.44;5076489;28;20028;-67
2022/07/15 09:38:07;;;;;;;3.58;1.35;;;;;;;29.26;30.86;101114.03;5077207;28;20037;-67
2022/07/15 09:40:34;;;;;;;4.25;1.70;;;;;;;29.28;30.38;101115.25;5076513;28;20039;-68
2022/07/15 09:43:05;;;;;;;3.65;1.70;;;;;;;29.21;30.19;101134.47;5060254;28;20029;-67
2022/07/15 09:45:30;;;;;;;4.57;1.50;;;;;;;29.23;29.85;101120.56;5076272;28;20481;-67
2022/07/15 09:48:06;;;;;;;4.70;1.60;;;;;;;29.22;29.97;101119.72;5060197;28;20033;-67
2022/07/15 09:50:36;;;;;;;7.55;1.75;;;;;;;29.18;30.02;101122.59;5058422;28;20037;-67
2022/07/15 09:53:14;;;;;;;4.00;1.50;;;;;;;29.17;30.34;101120.16;5051062;28;20047;-67
2022/07/15 09:55:42;;;;;;;4.97;1.58;;;;;;;29.32;29.96;101112.41;5060070;28;20490;-67
2022/07/15 09:58:08;;;;;;;7.20;1.48;;;;;;;29.40;30.63;101108.31;5058100;28;20072;-67
2022/07/15 10:00:37;;;;;;;6.25;1.50;;;;;;;29.46;30.34;101112.38;5059433;28;20049;-67
2022/07/15 10:03:03;;;;;;;4.30;1.70;;;;;;;29.51;30.51;101099.72;5060137;28;20036;-67
2022/07/15 10:05:30;;;;;;;2.50;1.50;;;;;;;29.64;30.12;101112.38;5060012;28;20024;-67
2022/07/15 10:07:56;;;;;;;5.88;1.83;;;;;;;29.57;29.87;101110.34;5060077;28;20078;-67
2022/07/15 10:10:25;;;;;;;3.95;1.65;;;;;;;29.61;29.12;101102.56;5043543;28;20029;-67
2022/07/15 10:13:25;;;;;;;4.55;1.60;;;;;;;29.67;29.67;101105.03;5059066;28;20029;-67
2022/07/15 10:16:03;;;;;;;5.45;1.75;;;;;;;29.76;29.46;101094.81;5073887;28;20044;-67
2022/07/15 10:18:50;;;;;;;4.75;1.88;;;;;;;29.82;30.07;101112.38;5075451;28;20107;-66
2022/07/15 10:21:31;;;;;;;5.53;1.67;;;;;;;29.88;28.84;101093.53;5076127;28;20070;-67
2022/07/15 10:24:10;;;;;;;5.28;1.60;;;;;;;30.01;29.41;101093.94;5055546;28;20028;-67
2022/07/15 10:26:56;;;;;;;4.03;1.70;;;;;;;30.06;29.44;101094.31;5076247;28;20489;-66
2022/07/15 10:29:21;;;;;;;4.72;1.50;;;;;;;30.26;29.56;101088.94;5075624;28;20033;-67
2022/07/15 10:31:47;;;;;;;5.20;1.70;;;;;;;30.26;29.74;101094.69;5059518;28;20028;-66
2022/07/15 10:34:12;;;;;;;4.43;1.40;;;;;;;30.49;29.48;101087.59;5059041;28;20045;-66
2022/07/15 10:36:47;;;;;;;5.38;1.70;;;;;;;30.58;29.85;101087.97;5059154;28;20040;-66
2022/07/15 10:39:15;;;;;;;2.75;1.63;;;;;;;30.66;28.86;101085.88;5074984;28;20047;-67
2022/07/15 10:41:50;;;;;;;3.95;1.65;;;;;;;30.66;29.17;101088.75;5075607;28;20020;-67
2022/07/15 10:44:16;;;;;;;5.15;1.58;;;;;;;30.76;28.61;101089.88;5075336;28;20036;-66
2022/07/15 10:46:41;;;;;;;3.40;1.55;;;;;;;30.81;28.70;101089.47;5076875;28;20082;-67
2022/07/15 10:49:06;;;;;;;4.63;1.88;;;;;;;30.99;29.00;101078.72;5075314;28;20489;-66
2022/07/15 10:51:35;;;;;;;3.55;1.80;;;;;;;30.90;28.41;101084.94;5075250;28;20058;-67
2022/07/15 10:54:01;;;;;;;4.88;1.90;;;;;;;30.91;27.86;101085.75;5092439;28;20063;-67
2022/07/15 10:56:31;;;;;;;3.17;1.60;;;;;;;31.02;26.94;101083.59;5075321;28;20040;-67
2022/07/15 10:59:16;;;;;;;4.93;1.70;;;;;;;31.15;27.67;101084.75;5074937;28;20086;-66
2022/07/15 11:01:43;;;;;;;3.38;1.52;;;;;;;31.36;27.61;101089.50;5056588;28;20035;-67
2022/07/15 11:04:22;;;;;;;6.70;1.90;;;;;;;31.49;27.31;101091.84;5055473;28;20587;-67
2022/07/15 11:07:07;;;;;;;3.55;1.88;;;;;;;31.44;27.34;101087.38;5069072;28;20021;-67
2022/07/15 11:10:11;;;;;;;2.88;1.63;;;;;;;31.56;27.35;101086.03;5073298;28;20115;-67
2022/07/15 11:12:37;;;;;;;6.43;1.85;;;;;;;31.64;27.71;101089.66;5074885;28;20050;-67
2022/07/15 11:15:11;;;;;;;4.63;1.50;;;;;;;31.53;26.77;101081.94;5075994;28;20389;-67
2022/07/15 11:17:36;;;;;;;7.28;1.58;;;;;;;31.53;27.14;101075.41;5056685;28;20033;-66
2022/07/15 11:20:10;;;;;;;3.33;1.58;;;;;;;31.53;26.93;101081.94;5058156;28;20033;-67
2022/07/15 11:22:37;;;;;;;4.18;1.65;;;;;;;31.57;26.94;101077.00;5047347;28;20393;-67
2022/07/15 11:25:06;;;;;;;4.22;1.50;;;;;;;31.66;27.13;101075.69;5058584;28;20751;-66
2022/07/15 11:27:31;;;;;;;3.95;1.70;;;;;;;31.73;27.40;101076.44;5058648;28;20036;-67
2022/07/15 11:30:03;;;;;;;4.78;1.88;;;;;;;31.65;27.29;101080.63;5066347;28;20033;-69
2022/07/15 11:32:33;;;;;;;4.03;1.80;;;;;;;31.59;26.66;101079.44;5090757;28;20553;-69
2022/07/15 11:34:59;;;;;;;5.07;2.10;;;;;;;31.68;26.82;101082.63;5074205;28;20041;-69
2022/07/15 11:37:26;;;;;;;3.95;1.77;;;;;;;31.52;26.25;101083.19;5075687;28;20024;-69